F7LR LFKJ-LEPA
Flight info
| Callsign | F7LR |
|---|---|
| Flight time | N/A |
| Altitude | 10000 |
| Route | NEGAT DCT BALEN UT250 RIXOT |
| Aircraft | DA42/L-SDFGRY/C |
Departure
| Time | 2026-05-05 17:32 |
|---|---|
| Airport | Ajaccio Napoléon Bonaparte airport (LFKJ) |
Arrival
| Time | N/A |
|---|---|
| Airport | Palma de Mallorca Airport (LEPA) |
| Time | Latitude | Longitude | Altitude | Speed | Heading |
|---|---|---|---|---|---|
| 2026-05-05 17:15 | 41.92185 | 8.79484 | 18 ft | 0 kts | 4° |
| 2026-05-05 17:27 | 41.92186 | 8.79484 | 18 ft | 3 kts | 4° |
| 2026-05-05 17:27 | 41.92246 | 8.79517 | 17 ft | 16 kts | 20° |
| 2026-05-05 17:27 | 41.92311 | 8.79552 | 16 ft | 11 kts | 99° |
| 2026-05-05 17:28 | 41.92301 | 8.79700 | 20 ft | 19 kts | 95° |
| 2026-05-05 17:28 | 41.92290 | 8.79876 | 21 ft | 15 kts | 96° |
| 2026-05-05 17:28 | 41.92282 | 8.79996 | 17 ft | 8 kts | 96° |
| 2026-05-05 17:28 | 41.92279 | 8.80033 | 16 ft | 0 kts | 94° |
| 2026-05-05 17:30 | 41.92279 | 8.80040 | 16 ft | 7 kts | 96° |
| 2026-05-05 17:30 | 41.92240 | 8.80138 | 14 ft | 13 kts | 166° |
| 2026-05-05 17:30 | 41.92204 | 8.80130 | 14 ft | 0 kts | 205° |
| 2026-05-05 17:31 | 41.92157 | 8.80100 | 14 ft | 33 kts | 205° |
| 2026-05-05 17:31 | 41.91765 | 8.79857 | 14 ft | 86 kts | 206° |
| 2026-05-05 17:31 | 41.91185 | 8.79509 | 238 ft | 96 kts | 206° |
| 2026-05-05 17:31 | 41.90560 | 8.79135 | 533 ft | 100 kts | 205° |
| 2026-05-05 17:32 | 41.89990 | 8.78599 | 860 ft | 100 kts | 219° |
| 2026-05-05 17:32 | 41.89437 | 8.78053 | 1224 ft | 97 kts | 217° |
| 2026-05-05 17:32 | 41.88870 | 8.77526 | 1537 ft | 100 kts | 215° |
| 2026-05-05 17:32 | 41.88298 | 8.76998 | 1869 ft | 100 kts | 213° |
| 2026-05-05 17:33 | 41.87724 | 8.76473 | 2201 ft | 100 kts | 214° |
| 2026-05-05 17:33 | 41.87150 | 8.75950 | 2538 ft | 99 kts | 214° |
| 2026-05-05 17:33 | 41.86580 | 8.75432 | 2892 ft | 98 kts | 215° |
| 2026-05-05 17:33 | 41.86021 | 8.74925 | 3211 ft | 98 kts | 214° |
| 2026-05-05 17:34 | 41.85454 | 8.74412 | 3537 ft | 98 kts | 214° |
| 2026-05-05 17:34 | 41.84883 | 8.73896 | 3854 ft | 99 kts | 214° |
| 2026-05-05 17:34 | 41.84308 | 8.73378 | 4183 ft | 99 kts | 215° |
| 2026-05-05 17:34 | 41.83741 | 8.72869 | 4521 ft | 98 kts | 214° |
| 2026-05-05 17:35 | 41.83171 | 8.72357 | 4844 ft | 99 kts | 214° |
| 2026-05-05 17:35 | 41.82601 | 8.71843 | 5154 ft | 98 kts | 215° |
| 2026-05-05 17:35 | 41.82032 | 8.71329 | 5469 ft | 99 kts | 215° |
| 2026-05-05 17:35 | 41.81461 | 8.70813 | 5782 ft | 99 kts | 215° |
| 2026-05-05 17:36 | 41.80887 | 8.70296 | 6102 ft | 100 kts | 216° |
| 2026-05-05 17:36 | 41.80311 | 8.69777 | 6427 ft | 99 kts | 216° |
| 2026-05-05 17:36 | 41.79737 | 8.69260 | 6724 ft | 99 kts | 216° |
| 2026-05-05 17:36 | 41.79170 | 8.68750 | 7027 ft | 99 kts | 216° |
| 2026-05-05 17:37 | 41.78592 | 8.68230 | 7339 ft | 99 kts | 217° |
| 2026-05-05 17:37 | 41.78021 | 8.67717 | 7659 ft | 99 kts | 217° |
| 2026-05-05 17:37 | 41.77452 | 8.67206 | 7985 ft | 98 kts | 217° |
| 2026-05-05 17:37 | 41.76884 | 8.66696 | 8297 ft | 98 kts | 217° |
| 2026-05-05 17:38 | 41.76316 | 8.66186 | 8619 ft | 98 kts | 217° |
| 2026-05-05 17:38 | 41.75749 | 8.65677 | 8941 ft | 98 kts | 217° |
| 2026-05-05 17:38 | 41.75183 | 8.65169 | 9261 ft | 98 kts | 218° |
| 2026-05-05 17:38 | 41.74619 | 8.64663 | 9598 ft | 98 kts | 218° |
| 2026-05-05 17:39 | 41.74055 | 8.64156 | 9912 ft | 98 kts | 218° |
| 2026-05-05 17:39 | 41.73446 | 8.63605 | 9962 ft | 115 kts | 218° |
| 2026-05-05 17:39 | 41.72741 | 8.62965 | 9969 ft | 130 kts | 217° |
| 2026-05-05 17:39 | 41.71960 | 8.62263 | 9975 ft | 140 kts | 217° |
| 2026-05-05 17:40 | 41.71140 | 8.61528 | 9969 ft | 147 kts | 218° |
| 2026-05-05 17:40 | 41.70397 | 8.60551 | 9967 ft | 150 kts | 234° |
| 2026-05-05 17:40 | 41.69884 | 8.59347 | 9971 ft | 152 kts | 241° |
| 2026-05-05 17:40 | 41.69396 | 8.58098 | 9967 ft | 151 kts | 241° |
| 2026-05-05 17:41 | 41.68911 | 8.56852 | 9963 ft | 150 kts | 241° |
| 2026-05-05 17:41 | 41.68430 | 8.55614 | 9968 ft | 150 kts | 241° |
| 2026-05-05 17:41 | 41.67949 | 8.54379 | 9968 ft | 149 kts | 241° |
| 2026-05-05 17:41 | 41.67470 | 8.53146 | 9970 ft | 149 kts | 241° |
| 2026-05-05 17:42 | 41.66991 | 8.51913 | 9967 ft | 149 kts | 241° |
| 2026-05-05 17:42 | 41.66512 | 8.50681 | 9968 ft | 149 kts | 241° |
| 2026-05-05 17:42 | 41.66034 | 8.49453 | 9969 ft | 149 kts | 241° |
| 2026-05-05 17:42 | 41.65555 | 8.48225 | 9966 ft | 149 kts | 241° |
| 2026-05-05 17:43 | 41.65078 | 8.46999 | 9967 ft | 148 kts | 241° |
| 2026-05-05 17:43 | 41.64606 | 8.45791 | 9969 ft | 148 kts | 241° |
| 2026-05-05 17:43 | 41.64129 | 8.44567 | 9967 ft | 148 kts | 241° |
| 2026-05-05 17:43 | 41.63653 | 8.43345 | 9967 ft | 148 kts | 241° |
| 2026-05-05 17:44 | 41.63176 | 8.42123 | 9965 ft | 148 kts | 241° |
| 2026-05-05 17:44 | 41.62699 | 8.40903 | 9961 ft | 148 kts | 240° |
| 2026-05-05 17:44 | 41.62222 | 8.39683 | 9965 ft | 148 kts | 240° |
| 2026-05-05 17:44 | 41.61746 | 8.38465 | 9969 ft | 148 kts | 240° |
| 2026-05-05 17:45 | 41.61269 | 8.37245 | 9968 ft | 148 kts | 240° |
| 2026-05-05 17:45 | 41.60793 | 8.36025 | 9968 ft | 148 kts | 240° |
| 2026-05-05 17:45 | 41.60316 | 8.34806 | 9967 ft | 148 kts | 241° |
| 2026-05-05 17:45 | 41.59845 | 8.33603 | 9965 ft | 148 kts | 240° |
| 2026-05-05 17:46 | 41.59367 | 8.32383 | 9971 ft | 148 kts | 240° |
| 2026-05-05 17:46 | 41.58888 | 8.31161 | 9969 ft | 148 kts | 240° |
| 2026-05-05 17:46 | 41.58411 | 8.29942 | 9967 ft | 148 kts | 240° |
| 2026-05-05 17:46 | 41.57933 | 8.28725 | 9966 ft | 148 kts | 240° |
| 2026-05-05 17:47 | 41.57455 | 8.27506 | 9963 ft | 148 kts | 240° |
| 2026-05-05 17:47 | 41.56977 | 8.26287 | 9967 ft | 148 kts | 240° |
| 2026-05-05 17:47 | 41.56499 | 8.25069 | 9967 ft | 148 kts | 240° |
| 2026-05-05 17:47 | 41.56020 | 8.23849 | 9966 ft | 148 kts | 240° |
| 2026-05-05 17:48 | 41.55540 | 8.22629 | 9967 ft | 148 kts | 240° |
| 2026-05-05 17:48 | 41.55060 | 8.21407 | 9964 ft | 148 kts | 240° |
| 2026-05-05 17:48 | 41.54587 | 8.20203 | 9968 ft | 149 kts | 240° |
| 2026-05-05 17:48 | 41.54100 | 8.18964 | 9963 ft | 149 kts | 240° |
| 2026-05-05 17:49 | 41.53625 | 8.17758 | 9966 ft | 149 kts | 240° |
| 2026-05-05 17:49 | 41.53145 | 8.16540 | 9964 ft | 148 kts | 240° |
| 2026-05-05 17:49 | 41.52665 | 8.15320 | 9964 ft | 148 kts | 240° |
| 2026-05-05 17:49 | 41.52184 | 8.14100 | 9964 ft | 149 kts | 240° |
| 2026-05-05 17:50 | 41.51702 | 8.12876 | 9966 ft | 149 kts | 240° |
| 2026-05-05 17:50 | 41.51219 | 8.11651 | 9967 ft | 149 kts | 240° |
| 2026-05-05 17:50 | 41.50736 | 8.10430 | 9962 ft | 149 kts | 240° |
| 2026-05-05 17:50 | 41.50254 | 8.09207 | 9968 ft | 149 kts | 240° |
| 2026-05-05 17:51 | 41.49772 | 8.07986 | 9964 ft | 149 kts | 240° |
| 2026-05-05 17:51 | 41.49289 | 8.06765 | 9961 ft | 149 kts | 240° |
| 2026-05-05 17:51 | 41.48814 | 8.05562 | 9965 ft | 149 kts | 240° |
| 2026-05-05 17:51 | 41.48331 | 8.04341 | 9963 ft | 149 kts | 240° |
| 2026-05-05 17:52 | 41.47849 | 8.03123 | 9965 ft | 149 kts | 240° |
| 2026-05-05 17:52 | 41.47367 | 8.01905 | 9963 ft | 148 kts | 240° |
| 2026-05-05 17:52 | 41.46885 | 8.00688 | 9964 ft | 148 kts | 240° |
| 2026-05-05 17:52 | 41.46403 | 7.99472 | 9961 ft | 148 kts | 240° |
| 2026-05-05 17:53 | 41.45920 | 7.98251 | 9964 ft | 149 kts | 240° |
| 2026-05-05 17:53 | 41.45437 | 7.97032 | 9960 ft | 149 kts | 240° |
| 2026-05-05 17:53 | 41.44954 | 7.95813 | 9964 ft | 149 kts | 240° |
| 2026-05-05 17:53 | 41.44471 | 7.94594 | 9964 ft | 149 kts | 240° |
| 2026-05-05 17:54 | 41.43987 | 7.93375 | 9961 ft | 149 kts | 240° |
| 2026-05-05 17:54 | 41.43503 | 7.92157 | 9959 ft | 149 kts | 240° |
| 2026-05-05 17:54 | 41.43019 | 7.90938 | 9961 ft | 149 kts | 239° |
| 2026-05-05 17:54 | 41.42533 | 7.89716 | 9964 ft | 148 kts | 240° |
| 2026-05-05 17:55 | 41.42050 | 7.88501 | 9963 ft | 149 kts | 240° |
| 2026-05-05 17:55 | 41.41566 | 7.87283 | 9962 ft | 149 kts | 240° |
| 2026-05-05 17:55 | 41.41127 | 7.86051 | 9961 ft | 150 kts | 248° |
| 2026-05-05 17:55 | 41.40847 | 7.84710 | 9963 ft | 150 kts | 251° |
| 2026-05-05 17:56 | 41.40574 | 7.83367 | 9961 ft | 150 kts | 251° |
| 2026-05-05 17:56 | 41.40300 | 7.82021 | 9960 ft | 150 kts | 251° |
| 2026-05-05 17:56 | 41.40026 | 7.80675 | 9958 ft | 151 kts | 250° |
| 2026-05-05 17:56 | 41.39752 | 7.79325 | 9962 ft | 151 kts | 250° |
| 2026-05-05 17:57 | 41.39476 | 7.77976 | 9960 ft | 151 kts | 251° |
| 2026-05-05 17:57 | 41.39202 | 7.76629 | 9963 ft | 151 kts | 250° |
| 2026-05-05 17:57 | 41.38927 | 7.75283 | 9959 ft | 151 kts | 250° |
| 2026-05-05 17:57 | 41.38652 | 7.73939 | 9963 ft | 150 kts | 251° |
| 2026-05-05 17:58 | 41.38378 | 7.72595 | 9958 ft | 150 kts | 250° |
| 2026-05-05 17:58 | 41.38106 | 7.71266 | 9961 ft | 150 kts | 250° |
| 2026-05-05 17:58 | 41.37830 | 7.69920 | 9960 ft | 151 kts | 250° |
| 2026-05-05 17:58 | 41.37555 | 7.68574 | 9955 ft | 151 kts | 250° |
| 2026-05-05 17:59 | 41.37279 | 7.67227 | 9958 ft | 150 kts | 250° |
| 2026-05-05 17:59 | 41.37003 | 7.65885 | 9956 ft | 150 kts | 250° |
| 2026-05-05 17:59 | 41.36727 | 7.64537 | 9960 ft | 150 kts | 250° |
| 2026-05-05 17:59 | 41.36451 | 7.63191 | 9959 ft | 151 kts | 250° |
| 2026-05-05 18:00 | 41.36174 | 7.61844 | 9960 ft | 151 kts | 250° |
| 2026-05-05 18:00 | 41.35897 | 7.60498 | 9951 ft | 151 kts | 250° |
| 2026-05-05 18:00 | 41.35623 | 7.59168 | 9955 ft | 151 kts | 250° |
| 2026-05-05 18:00 | 41.35346 | 7.57824 | 9960 ft | 150 kts | 250° |
| 2026-05-05 18:01 | 41.35069 | 7.56481 | 9956 ft | 150 kts | 250° |
| 2026-05-05 18:01 | 41.34792 | 7.55137 | 9962 ft | 151 kts | 250° |
| 2026-05-05 18:01 | 41.34515 | 7.53793 | 9950 ft | 151 kts | 250° |
| 2026-05-05 18:01 | 41.34237 | 7.52447 | 9955 ft | 151 kts | 250° |
| 2026-05-05 18:02 | 41.33959 | 7.51100 | 9956 ft | 151 kts | 250° |
| 2026-05-05 18:02 | 41.33680 | 7.49750 | 9955 ft | 151 kts | 250° |
| 2026-05-05 18:02 | 41.33401 | 7.48400 | 9954 ft | 151 kts | 250° |
| 2026-05-05 18:02 | 41.33122 | 7.47051 | 9951 ft | 151 kts | 250° |
| 2026-05-05 18:03 | 41.32937 | 7.46161 | 9950 ft | 151 kts | 250° |
| 2026-05-05 18:03 | 41.32659 | 7.44816 | 9947 ft | 151 kts | 250° |
| 2026-05-05 18:03 | 41.32380 | 7.43471 | 9951 ft | 151 kts | 250° |
| 2026-05-05 18:03 | 41.32101 | 7.42126 | 9956 ft | 151 kts | 250° |
| 2026-05-05 18:04 | 41.31730 | 7.40340 | 9948 ft | 151 kts | 250° |
| 2026-05-05 18:04 | 41.31449 | 7.38989 | 9952 ft | 152 kts | 250° |
| 2026-05-05 18:04 | 41.31168 | 7.37639 | 9948 ft | 151 kts | 250° |
| 2026-05-05 18:04 | 41.30979 | 7.36726 | 9945 ft | 151 kts | 250° |
| 2026-05-05 18:05 | 41.30697 | 7.35374 | 9944 ft | 151 kts | 250° |
| 2026-05-05 18:05 | 41.30416 | 7.34023 | 9948 ft | 152 kts | 250° |
| 2026-05-05 18:05 | 41.30138 | 7.32690 | 9948 ft | 152 kts | 250° |
| 2026-05-05 18:05 | 41.29856 | 7.31340 | 9948 ft | 152 kts | 250° |
| 2026-05-05 18:06 | 41.29575 | 7.29989 | 9944 ft | 151 kts | 250° |
| 2026-05-05 18:06 | 41.29384 | 7.29077 | 9951 ft | 151 kts | 250° |
| 2026-05-05 18:06 | 41.29010 | 7.27289 | 9952 ft | 151 kts | 250° |
| 2026-05-05 18:06 | 41.28728 | 7.25939 | 9944 ft | 152 kts | 250° |
| 2026-05-05 18:07 | 41.28445 | 7.24585 | 9947 ft | 152 kts | 250° |
| 2026-05-05 18:07 | 41.28162 | 7.23232 | 9948 ft | 152 kts | 250° |
| 2026-05-05 18:07 | 41.27879 | 7.21881 | 9943 ft | 152 kts | 250° |
| 2026-05-05 18:07 | 41.27596 | 7.20529 | 9948 ft | 151 kts | 250° |
| 2026-05-05 18:08 | 41.27313 | 7.19183 | 9950 ft | 151 kts | 250° |
| 2026-05-05 18:08 | 41.27029 | 7.17833 | 9942 ft | 151 kts | 250° |
| 2026-05-05 18:08 | 41.26746 | 7.16485 | 9950 ft | 151 kts | 250° |
| 2026-05-05 18:08 | 41.26466 | 7.15153 | 9946 ft | 151 kts | 250° |
| 2026-05-05 18:09 | 41.26183 | 7.13806 | 9950 ft | 151 kts | 250° |
| 2026-05-05 18:09 | 41.25900 | 7.12461 | 9946 ft | 151 kts | 250° |
| 2026-05-05 18:09 | 41.25616 | 7.11111 | 9944 ft | 151 kts | 250° |
| 2026-05-05 18:09 | 41.25332 | 7.09763 | 9946 ft | 152 kts | 250° |
| 2026-05-05 18:10 | 41.25047 | 7.08412 | 9945 ft | 152 kts | 250° |
| 2026-05-05 18:10 | 41.24762 | 7.07064 | 9946 ft | 152 kts | 250° |
| 2026-05-05 18:10 | 41.24477 | 7.05714 | 9944 ft | 152 kts | 250° |
| 2026-05-05 18:10 | 41.24193 | 7.04367 | 9944 ft | 151 kts | 250° |
| 2026-05-05 18:11 | 41.23909 | 7.03022 | 9948 ft | 151 kts | 250° |
| 2026-05-05 18:11 | 41.23624 | 7.01675 | 9949 ft | 151 kts | 250° |
| 2026-05-05 18:11 | 41.23339 | 7.00330 | 9945 ft | 151 kts | 250° |
| 2026-05-05 18:11 | 41.23054 | 6.98983 | 9943 ft | 151 kts | 250° |
| 2026-05-05 18:12 | 41.22769 | 6.97638 | 9943 ft | 151 kts | 250° |
| 2026-05-05 18:12 | 41.22484 | 6.96296 | 9941 ft | 151 kts | 249° |
| 2026-05-05 18:12 | 41.22199 | 6.94952 | 9944 ft | 151 kts | 250° |
| 2026-05-05 18:12 | 41.21918 | 6.93628 | 9941 ft | 151 kts | 250° |
| 2026-05-05 18:13 | 41.21629 | 6.92269 | 9940 ft | 151 kts | 250° |
| 2026-05-05 18:13 | 41.21344 | 6.90928 | 9941 ft | 151 kts | 249° |
| 2026-05-05 18:13 | 41.21063 | 6.89605 | 9938 ft | 151 kts | 249° |
| 2026-05-05 18:13 | 41.20778 | 6.88268 | 9945 ft | 151 kts | 250° |
| 2026-05-05 18:14 | 41.20492 | 6.86927 | 9939 ft | 151 kts | 250° |
| 2026-05-05 18:14 | 41.20207 | 6.85585 | 9940 ft | 151 kts | 250° |
| 2026-05-05 18:14 | 41.19921 | 6.84245 | 9941 ft | 151 kts | 249° |
| 2026-05-05 18:14 | 41.19635 | 6.82905 | 9937 ft | 151 kts | 249° |
| 2026-05-05 18:15 | 41.19349 | 6.81568 | 9937 ft | 150 kts | 249° |
| 2026-05-05 18:15 | 41.19063 | 6.80229 | 9937 ft | 150 kts | 249° |
| 2026-05-05 18:15 | 41.18777 | 6.78892 | 9939 ft | 150 kts | 249° |
| 2026-05-05 18:15 | 41.18491 | 6.77554 | 9937 ft | 150 kts | 249° |
| 2026-05-05 18:16 | 41.18205 | 6.76217 | 9934 ft | 150 kts | 249° |
| 2026-05-05 18:16 | 41.17919 | 6.74884 | 9934 ft | 150 kts | 249° |
| 2026-05-05 18:16 | 41.17633 | 6.73550 | 9934 ft | 150 kts | 249° |
| 2026-05-05 18:16 | 41.17347 | 6.72217 | 9938 ft | 150 kts | 250° |
| 2026-05-05 18:17 | 41.17065 | 6.70899 | 9936 ft | 150 kts | 249° |
| 2026-05-05 18:17 | 41.16778 | 6.69566 | 9937 ft | 150 kts | 249° |
| 2026-05-05 18:17 | 41.16491 | 6.68231 | 9937 ft | 150 kts | 249° |
| 2026-05-05 18:17 | 41.16204 | 6.66896 | 9936 ft | 151 kts | 249° |
| 2026-05-05 18:18 | 41.15916 | 6.65557 | 9932 ft | 151 kts | 250° |
| 2026-05-05 18:18 | 41.15628 | 6.64220 | 9931 ft | 150 kts | 249° |
| 2026-05-05 18:18 | 41.15341 | 6.62883 | 9932 ft | 151 kts | 249° |
| 2026-05-05 18:18 | 41.15052 | 6.61545 | 9933 ft | 151 kts | 249° |
| 2026-05-05 18:19 | 41.14763 | 6.60206 | 9933 ft | 151 kts | 249° |
| 2026-05-05 18:19 | 41.14475 | 6.58868 | 9934 ft | 151 kts | 249° |
| 2026-05-05 18:19 | 41.14186 | 6.57533 | 9929 ft | 151 kts | 249° |
| 2026-05-05 18:19 | 41.13898 | 6.56196 | 9931 ft | 151 kts | 249° |
| 2026-05-05 18:20 | 41.13612 | 6.54875 | 9929 ft | 151 kts | 249° |
| 2026-05-05 18:20 | 41.13322 | 6.53534 | 9929 ft | 151 kts | 249° |
| 2026-05-05 18:20 | 41.13032 | 6.52197 | 9931 ft | 151 kts | 249° |
| 2026-05-05 18:20 | 41.12743 | 6.50858 | 9929 ft | 151 kts | 249° |
| 2026-05-05 18:21 | 41.12452 | 6.49517 | 9930 ft | 151 kts | 249° |
| 2026-05-05 18:21 | 41.12160 | 6.48174 | 9930 ft | 151 kts | 249° |
| 2026-05-05 18:21 | 41.11869 | 6.46831 | 9928 ft | 152 kts | 249° |
| 2026-05-05 18:21 | 41.11577 | 6.45488 | 9926 ft | 151 kts | 249° |
| 2026-05-05 18:22 | 41.11286 | 6.44146 | 9925 ft | 151 kts | 249° |
| 2026-05-05 18:22 | 41.10994 | 6.42805 | 9926 ft | 151 kts | 249° |
| 2026-05-05 18:22 | 41.10702 | 6.41463 | 9926 ft | 151 kts | 249° |
| 2026-05-05 18:22 | 41.10414 | 6.40138 | 9928 ft | 151 kts | 249° |
| 2026-05-05 18:23 | 41.10122 | 6.38796 | 9925 ft | 152 kts | 249° |
| 2026-05-05 18:23 | 41.09828 | 6.37451 | 9923 ft | 151 kts | 249° |
| 2026-05-05 18:23 | 41.09535 | 6.36108 | 9924 ft | 151 kts | 249° |
| 2026-05-05 18:23 | 41.09243 | 6.34768 | 9926 ft | 151 kts | 249° |
| 2026-05-05 18:24 | 41.08951 | 6.33432 | 9927 ft | 151 kts | 249° |
| 2026-05-05 18:24 | 41.08659 | 6.32095 | 9929 ft | 151 kts | 249° |
| 2026-05-05 18:24 | 41.08366 | 6.30755 | 9925 ft | 151 kts | 249° |
| 2026-05-05 18:24 | 41.08073 | 6.29416 | 9927 ft | 151 kts | 249° |
| 2026-05-05 18:25 | 41.07779 | 6.28076 | 9924 ft | 151 kts | 249° |
| 2026-05-05 18:25 | 41.07585 | 6.27188 | 9926 ft | 151 kts | 249° |
| 2026-05-05 18:25 | 41.07193 | 6.25398 | 9924 ft | 151 kts | 249° |
| 2026-05-05 18:25 | 41.06903 | 6.24076 | 9927 ft | 151 kts | 249° |
| 2026-05-05 18:26 | 41.06609 | 6.22735 | 9927 ft | 151 kts | 249° |
| 2026-05-05 18:26 | 41.06315 | 6.21396 | 9924 ft | 151 kts | 249° |
| 2026-05-05 18:26 | 41.06021 | 6.20058 | 9926 ft | 151 kts | 249° |
| 2026-05-05 18:26 | 41.05727 | 6.18722 | 9920 ft | 151 kts | 249° |
| 2026-05-05 18:27 | 41.05432 | 6.17382 | 9922 ft | 151 kts | 249° |
| 2026-05-05 18:27 | 41.05137 | 6.16042 | 9922 ft | 151 kts | 249° |
| 2026-05-05 18:27 | 41.04842 | 6.14703 | 9923 ft | 151 kts | 249° |
| 2026-05-05 18:27 | 41.04547 | 6.13364 | 9922 ft | 151 kts | 249° |
| 2026-05-05 18:28 | 41.03957 | 6.10689 | 9918 ft | 151 kts | 249° |
| 2026-05-05 18:28 | 41.03662 | 6.09352 | 9920 ft | 151 kts | 249° |
| 2026-05-05 18:28 | 41.03367 | 6.08017 | 9922 ft | 151 kts | 249° |
| 2026-05-05 18:29 | 41.03072 | 6.06684 | 9923 ft | 151 kts | 249° |
| 2026-05-05 18:29 | 41.02777 | 6.05350 | 9923 ft | 151 kts | 249° |
| 2026-05-05 18:29 | 41.02482 | 6.04017 | 9920 ft | 151 kts | 249° |
| 2026-05-05 18:29 | 41.02186 | 6.02683 | 9918 ft | 151 kts | 249° |
| 2026-05-05 18:30 | 41.01894 | 6.01365 | 9920 ft | 151 kts | 249° |
| 2026-05-05 18:30 | 41.01598 | 6.00028 | 9919 ft | 151 kts | 249° |
| 2026-05-05 18:30 | 41.01302 | 5.98693 | 9911 ft | 151 kts | 249° |
| 2026-05-05 18:30 | 41.01006 | 5.97361 | 9915 ft | 151 kts | 249° |
| 2026-05-05 18:31 | 41.00710 | 5.96030 | 9911 ft | 150 kts | 249° |
| 2026-05-05 18:31 | 41.00415 | 5.94701 | 9915 ft | 150 kts | 249° |
| 2026-05-05 18:31 | 41.00120 | 5.93373 | 9917 ft | 150 kts | 249° |
| 2026-05-05 18:31 | 40.99824 | 5.92044 | 9911 ft | 150 kts | 249° |
| 2026-05-05 18:32 | 40.99528 | 5.90717 | 9914 ft | 150 kts | 249° |
| 2026-05-05 18:32 | 40.99232 | 5.89389 | 9918 ft | 150 kts | 249° |
| 2026-05-05 18:32 | 40.98940 | 5.88078 | 9908 ft | 150 kts | 250° |
| 2026-05-05 18:32 | 40.98644 | 5.86752 | 9919 ft | 151 kts | 250° |
| 2026-05-05 18:33 | 40.98346 | 5.85419 | 9912 ft | 151 kts | 250° |
| 2026-05-05 18:33 | 40.98048 | 5.84082 | 9913 ft | 151 kts | 250° |
| 2026-05-05 18:33 | 40.97749 | 5.82746 | 9918 ft | 151 kts | 250° |
| 2026-05-05 18:33 | 40.97451 | 5.81413 | 9914 ft | 151 kts | 250° |
| 2026-05-05 18:34 | 40.97154 | 5.80083 | 9913 ft | 151 kts | 250° |
| 2026-05-05 18:34 | 40.96856 | 5.78753 | 9918 ft | 151 kts | 250° |
| 2026-05-05 18:34 | 40.96557 | 5.77419 | 9917 ft | 151 kts | 250° |
| 2026-05-05 18:34 | 40.96258 | 5.76084 | 9911 ft | 151 kts | 250° |
| 2026-05-05 18:35 | 40.95958 | 5.74748 | 9911 ft | 151 kts | 250° |
| 2026-05-05 18:35 | 40.95659 | 5.73417 | 9917 ft | 151 kts | 250° |
| 2026-05-05 18:35 | 40.95360 | 5.72085 | 9913 ft | 151 kts | 250° |
| 2026-05-05 18:35 | 40.95061 | 5.70754 | 9911 ft | 151 kts | 250° |
| 2026-05-05 18:36 | 40.94754 | 5.69425 | 9908 ft | 151 kts | 247° |
| 2026-05-05 18:36 | 40.94251 | 5.68223 | 9909 ft | 149 kts | 234° |
| 2026-05-05 18:36 | 40.93652 | 5.67103 | 9912 ft | 149 kts | 234° |
| 2026-05-05 18:36 | 40.93055 | 5.65984 | 9912 ft | 149 kts | 234° |
| 2026-05-05 18:37 | 40.92455 | 5.64863 | 9914 ft | 149 kts | 234° |
| 2026-05-05 18:37 | 40.91862 | 5.63754 | 9916 ft | 149 kts | 234° |
| 2026-05-05 18:37 | 40.91264 | 5.62636 | 9913 ft | 149 kts | 234° |
| 2026-05-05 18:37 | 40.90665 | 5.61518 | 9911 ft | 149 kts | 234° |
| 2026-05-05 18:38 | 40.90066 | 5.60398 | 9915 ft | 149 kts | 234° |
| 2026-05-05 18:38 | 40.89469 | 5.59282 | 9908 ft | 149 kts | 234° |
| 2026-05-05 18:38 | 40.88869 | 5.58163 | 9912 ft | 149 kts | 234° |
| 2026-05-05 18:38 | 40.88271 | 5.57048 | 9906 ft | 149 kts | 234° |
| 2026-05-05 18:39 | 40.87670 | 5.55926 | 9907 ft | 149 kts | 234° |
| 2026-05-05 18:39 | 40.87072 | 5.54810 | 9912 ft | 149 kts | 234° |
| 2026-05-05 18:39 | 40.86474 | 5.53695 | 9909 ft | 148 kts | 234° |
| 2026-05-05 18:39 | 40.85874 | 5.52577 | 9913 ft | 148 kts | 234° |
| 2026-05-05 18:40 | 40.85277 | 5.51466 | 9913 ft | 148 kts | 234° |
| 2026-05-05 18:40 | 40.84680 | 5.50354 | 9907 ft | 148 kts | 234° |
| 2026-05-05 18:40 | 40.84090 | 5.49257 | 9914 ft | 148 kts | 234° |
| 2026-05-05 18:40 | 40.83492 | 5.48144 | 9908 ft | 148 kts | 234° |
| 2026-05-05 18:41 | 40.82895 | 5.47034 | 9908 ft | 148 kts | 234° |
| 2026-05-05 18:41 | 40.82299 | 5.45925 | 9906 ft | 148 kts | 234° |
| 2026-05-05 18:41 | 40.81702 | 5.44815 | 9904 ft | 148 kts | 234° |
| 2026-05-05 18:41 | 40.81104 | 5.43705 | 9907 ft | 149 kts | 234° |
| 2026-05-05 18:42 | 40.80506 | 5.42593 | 9905 ft | 148 kts | 234° |
| 2026-05-05 18:42 | 40.79907 | 5.41481 | 9901 ft | 148 kts | 234° |
| 2026-05-05 18:42 | 40.79310 | 5.40375 | 9906 ft | 148 kts | 234° |
| 2026-05-05 18:42 | 40.78714 | 5.39269 | 9912 ft | 148 kts | 234° |
| 2026-05-05 18:43 | 40.78119 | 5.38165 | 9907 ft | 148 kts | 234° |
| 2026-05-05 18:43 | 40.77523 | 5.37059 | 9905 ft | 148 kts | 234° |
| 2026-05-05 18:43 | 40.76927 | 5.35955 | 9905 ft | 148 kts | 234° |
| 2026-05-05 18:43 | 40.76330 | 5.34848 | 9908 ft | 148 kts | 234° |
| 2026-05-05 18:44 | 40.75733 | 5.33743 | 9900 ft | 148 kts | 234° |
| 2026-05-05 18:44 | 40.75144 | 5.32653 | 9902 ft | 148 kts | 234° |
| 2026-05-05 18:44 | 40.74547 | 5.31548 | 9908 ft | 148 kts | 234° |
| 2026-05-05 18:44 | 40.73950 | 5.30443 | 9909 ft | 148 kts | 234° |
| 2026-05-05 18:45 | 40.73354 | 5.29341 | 9910 ft | 148 kts | 234° |
| 2026-05-05 18:45 | 40.72757 | 5.28238 | 9906 ft | 148 kts | 234° |
| 2026-05-05 18:45 | 40.72160 | 5.27135 | 9903 ft | 148 kts | 234° |
| 2026-05-05 18:45 | 40.71563 | 5.26031 | 9905 ft | 148 kts | 234° |
| 2026-05-05 18:46 | 40.70965 | 5.24927 | 9910 ft | 148 kts | 234° |
| 2026-05-05 18:46 | 40.70367 | 5.23823 | 9910 ft | 148 kts | 234° |
| 2026-05-05 18:46 | 40.69771 | 5.22721 | 9907 ft | 148 kts | 234° |
| 2026-05-05 18:46 | 40.69174 | 5.21620 | 9905 ft | 148 kts | 235° |
| 2026-05-05 18:47 | 40.68577 | 5.20520 | 9905 ft | 148 kts | 235° |
| 2026-05-05 18:47 | 40.67980 | 5.19419 | 9907 ft | 148 kts | 234° |
| 2026-05-05 18:47 | 40.67383 | 5.18320 | 9903 ft | 148 kts | 234° |
| 2026-05-05 18:47 | 40.66786 | 5.17219 | 9905 ft | 148 kts | 235° |
| 2026-05-05 18:48 | 40.66188 | 5.16118 | 9901 ft | 148 kts | 235° |
| 2026-05-05 18:48 | 40.65589 | 5.15016 | 9903 ft | 148 kts | 235° |
| 2026-05-05 18:48 | 40.64992 | 5.13917 | 9905 ft | 148 kts | 235° |
| 2026-05-05 18:48 | 40.64393 | 5.12815 | 9907 ft | 148 kts | 235° |
| 2026-05-05 18:49 | 40.63794 | 5.11714 | 9906 ft | 148 kts | 235° |
| 2026-05-05 18:49 | 40.63196 | 5.10614 | 9906 ft | 148 kts | 235° |
| 2026-05-05 18:49 | 40.62599 | 5.09516 | 9906 ft | 147 kts | 235° |
| 2026-05-05 18:49 | 40.62001 | 5.08418 | 9904 ft | 147 kts | 235° |
| 2026-05-05 18:50 | 40.61413 | 5.07338 | 9903 ft | 147 kts | 235° |
| 2026-05-05 18:50 | 40.60815 | 5.06241 | 9902 ft | 147 kts | 235° |
| 2026-05-05 18:50 | 40.60219 | 5.05148 | 9902 ft | 147 kts | 235° |
| 2026-05-05 18:50 | 40.59621 | 5.04050 | 9907 ft | 147 kts | 235° |
| 2026-05-05 18:51 | 40.59225 | 5.03324 | 9907 ft | 148 kts | 235° |
| 2026-05-05 18:51 | 40.58627 | 5.02226 | 9905 ft | 148 kts | 235° |
| 2026-05-05 18:51 | 40.58027 | 5.01127 | 9897 ft | 148 kts | 235° |
| 2026-05-05 18:51 | 40.57428 | 5.00029 | 9905 ft | 148 kts | 235° |
| 2026-05-05 18:52 | 40.56828 | 4.98932 | 9901 ft | 147 kts | 235° |
| 2026-05-05 18:52 | 40.56229 | 4.97834 | 9897 ft | 147 kts | 235° |
| 2026-05-05 18:52 | 40.55631 | 4.96741 | 9904 ft | 147 kts | 234° |
| 2026-05-05 18:52 | 40.55032 | 4.95645 | 9894 ft | 148 kts | 234° |
| 2026-05-05 18:53 | 40.54433 | 4.94549 | 9903 ft | 148 kts | 235° |
| 2026-05-05 18:53 | 40.53834 | 4.93455 | 9902 ft | 147 kts | 234° |
| 2026-05-05 18:53 | 40.53235 | 4.92359 | 9904 ft | 147 kts | 234° |
| 2026-05-05 18:53 | 40.52636 | 4.91266 | 9903 ft | 147 kts | 235° |
| 2026-05-05 18:54 | 40.52038 | 4.90172 | 9901 ft | 148 kts | 234° |
| 2026-05-05 18:54 | 40.51438 | 4.89077 | 9903 ft | 148 kts | 234° |
| 2026-05-05 18:54 | 40.50838 | 4.87982 | 9905 ft | 148 kts | 234° |
| 2026-05-05 18:54 | 40.50238 | 4.86888 | 9903 ft | 148 kts | 234° |
| 2026-05-05 18:55 | 40.49636 | 4.85791 | 9902 ft | 147 kts | 234° |
| 2026-05-05 18:55 | 40.49037 | 4.84699 | 9900 ft | 147 kts | 234° |
| 2026-05-05 18:55 | 40.48438 | 4.83607 | 9903 ft | 147 kts | 234° |
| 2026-05-05 18:55 | 40.47839 | 4.82516 | 9898 ft | 147 kts | 234° |
| 2026-05-05 18:56 | 40.47230 | 4.81407 | 9896 ft | 148 kts | 234° |
| 2026-05-05 18:56 | 40.46630 | 4.80314 | 9900 ft | 148 kts | 234° |
| 2026-05-05 18:56 | 40.46029 | 4.79220 | 9899 ft | 148 kts | 234° |
| 2026-05-05 18:56 | 40.45428 | 4.78126 | 9897 ft | 147 kts | 234° |
| 2026-05-05 18:57 | 40.44827 | 4.77034 | 9901 ft | 147 kts | 234° |
| 2026-05-05 18:57 | 40.44226 | 4.75942 | 9898 ft | 147 kts | 234° |
| 2026-05-05 18:57 | 40.43634 | 4.74862 | 9894 ft | 142 kts | 234° |
| 2026-05-05 18:57 | 40.43056 | 4.73813 | 9900 ft | 143 kts | 234° |
| 2026-05-05 18:58 | 40.42469 | 4.72748 | 9900 ft | 144 kts | 234° |
| 2026-05-05 18:58 | 40.41886 | 4.71689 | 9898 ft | 145 kts | 234° |
| 2026-05-05 18:58 | 40.41293 | 4.70610 | 9902 ft | 146 kts | 234° |
| 2026-05-05 18:58 | 40.40696 | 4.69528 | 9900 ft | 146 kts | 234° |
| 2026-05-05 18:59 | 40.40101 | 4.68447 | 9902 ft | 146 kts | 234° |
| 2026-05-05 18:59 | 40.39505 | 4.67365 | 9904 ft | 146 kts | 234° |
| 2026-05-05 18:59 | 40.38909 | 4.66284 | 9900 ft | 146 kts | 234° |
| 2026-05-05 18:59 | 40.38312 | 4.65204 | 9898 ft | 146 kts | 234° |
| 2026-05-05 19:00 | 40.37760 | 4.64204 | 9896 ft | 146 kts | 234° |
| 2026-05-05 19:00 | 40.37122 | 4.63049 | 9895 ft | 146 kts | 234° |
| 2026-05-05 19:00 | 40.36528 | 4.61974 | 9899 ft | 146 kts | 234° |
| 2026-05-05 19:00 | 40.35933 | 4.60898 | 9897 ft | 146 kts | 234° |
| 2026-05-05 19:01 | 40.35337 | 4.59820 | 9894 ft | 146 kts | 234° |
| 2026-05-05 19:01 | 40.34749 | 4.58756 | 9897 ft | 146 kts | 234° |
| 2026-05-05 19:01 | 40.34155 | 4.57681 | 9897 ft | 146 kts | 234° |
| 2026-05-05 19:01 | 40.33559 | 4.56606 | 9893 ft | 146 kts | 234° |
| 2026-05-05 19:02 | 40.32964 | 4.55531 | 9894 ft | 146 kts | 234° |
| 2026-05-05 19:02 | 40.32369 | 4.54457 | 9895 ft | 146 kts | 234° |
| 2026-05-05 19:02 | 40.31774 | 4.53383 | 9896 ft | 146 kts | 234° |
| 2026-05-05 19:02 | 40.31179 | 4.52309 | 9890 ft | 146 kts | 234° |
| 2026-05-05 19:03 | 40.30583 | 4.51234 | 9887 ft | 146 kts | 234° |
| 2026-05-05 19:03 | 40.29987 | 4.50159 | 9885 ft | 146 kts | 235° |
| 2026-05-05 19:03 | 40.29391 | 4.49084 | 9889 ft | 145 kts | 235° |
| 2026-05-05 19:03 | 40.28797 | 4.48015 | 9888 ft | 145 kts | 234° |
| 2026-05-05 19:04 | 40.28202 | 4.46943 | 9896 ft | 145 kts | 234° |
| 2026-05-05 19:04 | 40.27606 | 4.45871 | 9889 ft | 146 kts | 234° |
| 2026-05-05 19:04 | 40.27010 | 4.44798 | 9892 ft | 146 kts | 234° |
| 2026-05-05 19:04 | 40.26413 | 4.43724 | 9893 ft | 146 kts | 235° |
| 2026-05-05 19:05 | 40.25816 | 4.42650 | 9889 ft | 146 kts | 235° |
| 2026-05-05 19:05 | 40.25219 | 4.41575 | 9892 ft | 146 kts | 234° |
| 2026-05-05 19:05 | 40.24623 | 4.40504 | 9889 ft | 146 kts | 234° |
| 2026-05-05 19:05 | 40.24026 | 4.39431 | 9893 ft | 146 kts | 234° |
| 2026-05-05 19:06 | 40.23429 | 4.38360 | 9891 ft | 146 kts | 234° |
| 2026-05-05 19:06 | 40.22840 | 4.37301 | 9894 ft | 146 kts | 235° |
| 2026-05-05 19:06 | 40.22241 | 4.36225 | 9893 ft | 146 kts | 234° |
| 2026-05-05 19:06 | 40.21641 | 4.35150 | 9892 ft | 146 kts | 234° |
| 2026-05-05 19:07 | 40.21044 | 4.34078 | 9896 ft | 146 kts | 234° |
| 2026-05-05 19:07 | 40.20446 | 4.33006 | 9890 ft | 146 kts | 234° |
| 2026-05-05 19:07 | 40.19846 | 4.31932 | 9894 ft | 146 kts | 234° |
| 2026-05-05 19:07 | 40.19249 | 4.30861 | 9895 ft | 146 kts | 234° |
| 2026-05-05 19:08 | 40.18648 | 4.29785 | 9897 ft | 146 kts | 234° |
| 2026-05-05 19:08 | 40.18048 | 4.28711 | 9898 ft | 146 kts | 234° |
| 2026-05-05 19:08 | 40.17448 | 4.27635 | 9898 ft | 146 kts | 234° |
| 2026-05-05 19:08 | 40.16846 | 4.26559 | 9899 ft | 146 kts | 234° |
| 2026-05-05 19:09 | 40.16246 | 4.25484 | 9899 ft | 146 kts | 234° |
| 2026-05-05 19:09 | 40.15645 | 4.24409 | 9896 ft | 146 kts | 234° |
| 2026-05-05 19:09 | 40.15043 | 4.23333 | 9903 ft | 146 kts | 234° |
| 2026-05-05 19:09 | 40.14442 | 4.22260 | 9898 ft | 146 kts | 234° |
| 2026-05-05 19:10 | 40.13841 | 4.21186 | 9903 ft | 146 kts | 234° |
| 2026-05-05 19:10 | 40.13239 | 4.20110 | 9903 ft | 147 kts | 234° |
| 2026-05-05 19:10 | 40.12637 | 4.19036 | 9902 ft | 147 kts | 234° |
| 2026-05-05 19:10 | 40.12035 | 4.17962 | 9905 ft | 146 kts | 234° |
| 2026-05-05 19:11 | 40.11434 | 4.16890 | 9903 ft | 146 kts | 234° |
| 2026-05-05 19:11 | 40.10831 | 4.15815 | 9902 ft | 146 kts | 234° |
| 2026-05-05 19:11 | 40.10230 | 4.14743 | 9906 ft | 146 kts | 234° |
| 2026-05-05 19:11 | 40.09629 | 4.13671 | 9906 ft | 146 kts | 234° |
| 2026-05-05 19:12 | 40.09026 | 4.12598 | 9905 ft | 146 kts | 234° |
| 2026-05-05 19:12 | 40.08432 | 4.11540 | 9907 ft | 146 kts | 234° |
| 2026-05-05 19:12 | 40.07830 | 4.10468 | 9901 ft | 146 kts | 234° |
| 2026-05-05 19:12 | 40.07228 | 4.09396 | 9901 ft | 147 kts | 234° |
| 2026-05-05 19:13 | 40.06622 | 4.08319 | 9906 ft | 147 kts | 234° |
| 2026-05-05 19:13 | 40.06019 | 4.07246 | 9908 ft | 147 kts | 234° |